createdAt,value
2022-11-15T00:01:30.793Z,10.40
2022-11-15T00:04:16.041Z,10.50
2022-11-15T00:07:01.618Z,10.50
2022-11-15T00:09:47.033Z,10.60
2022-11-15T00:12:32.550Z,10.50
2022-11-15T00:15:17.836Z,10.60
2022-11-15T00:18:04.594Z,10.60
2022-11-15T00:20:49.983Z,10.70
2022-11-15T00:23:35.665Z,10.70
2022-11-15T00:26:21.177Z,10.70
2022-11-15T00:29:06.927Z,10.70
2022-11-15T00:31:52.257Z,10.80
2022-11-15T00:34:37.974Z,10.80
2022-11-15T00:37:23.268Z,10.90
2022-11-15T00:40:09.665Z,10.90
2022-11-15T00:42:55.292Z,10.90
2022-11-15T00:45:40.782Z,10.90
2022-11-15T00:48:26.437Z,11.00
2022-11-15T00:51:11.885Z,11.00
2022-11-15T00:53:57.422Z,11.00
2022-11-15T00:56:43.046Z,11.10
2022-11-15T00:59:28.448Z,11.10
2022-11-15T01:02:13.675Z,11.10
2022-11-15T01:04:59.189Z,11.10
2022-11-15T01:07:44.698Z,11.20
2022-11-15T01:10:30.193Z,11.20
2022-11-15T01:13:15.651Z,11.20
2022-11-15T01:16:12.441Z,11.30
2022-11-15T01:18:57.948Z,11.30
2022-11-15T01:21:43.420Z,11.30
2022-11-15T01:24:28.984Z,11.40
2022-11-15T01:27:14.345Z,11.30
2022-11-15T01:29:59.569Z,11.40
2022-11-15T01:32:45.289Z,11.40
2022-11-15T01:35:31.023Z,11.50
2022-11-15T01:38:16.406Z,11.50
2022-11-15T01:41:02.093Z,11.50
2022-11-15T01:43:53.982Z,11.60
2022-11-15T01:46:39.507Z,11.60
2022-11-15T01:49:27.611Z,11.70
2022-11-15T01:52:18.201Z,11.70
2022-11-15T01:55:16.671Z,11.70
2022-11-15T01:58:05.311Z,11.70
2022-11-15T02:00:51.407Z,11.80
2022-11-15T02:04:02.578Z,11.80
2022-11-15T02:06:49.418Z,11.90
2022-11-15T02:09:37.693Z,11.90
2022-11-15T02:12:23.111Z,11.90
2022-11-15T02:15:09.741Z,11.90
2022-11-15T02:17:59.016Z,11.90
2022-11-15T02:21:02.749Z,11.90
2022-11-15T02:24:00.473Z,11.90
2022-11-15T02:26:59.043Z,12.00
2022-11-15T02:30:03.353Z,12.00
2022-11-15T02:33:19.433Z,12.10
2022-11-15T02:36:15.905Z,12.10
2022-11-15T02:39:32.759Z,12.10
2022-11-15T02:42:45.215Z,12.10
2022-11-15T02:45:36.500Z,12.10
2022-11-15T02:48:23.344Z,12.10
2022-11-15T02:51:09.250Z,12.10
2022-11-15T02:53:54.547Z,12.10
2022-11-15T02:56:39.974Z,12.20
2022-11-15T02:59:34.458Z,12.20
2022-11-15T03:02:41.839Z,12.20
2022-11-15T03:06:04.905Z,12.20
2022-11-15T03:09:10.149Z,12.20
2022-11-15T03:12:05.170Z,12.30
2022-11-15T03:14:56.452Z,12.30
2022-11-15T03:18:02.953Z,12.20
2022-11-15T03:20:50.055Z,12.30
2022-11-15T03:23:37.904Z,12.30
2022-11-15T03:26:26.034Z,12.30
2022-11-15T03:29:18.348Z,12.30
2022-11-15T03:32:10.479Z,12.30
2022-11-15T03:35:03.567Z,12.40
2022-11-15T03:38:12.535Z,12.40
2022-11-15T03:41:11.819Z,12.40
2022-11-15T03:44:05.669Z,12.50
2022-11-15T03:47:15.274Z,12.50
2022-11-15T03:50:05.529Z,12.50
2022-11-15T03:52:51.191Z,12.60
2022-11-15T03:55:36.618Z,12.60
2022-11-15T03:58:21.759Z,12.60
2022-11-15T04:01:06.956Z,12.60
2022-11-15T04:03:52.504Z,12.60
2022-11-15T04:06:38.019Z,12.70
2022-11-15T04:09:22.982Z,12.70
2022-11-15T04:12:08.288Z,12.80
2022-11-15T04:15:07.836Z,12.80
2022-11-15T04:18:09.658Z,12.80
2022-11-15T04:21:13.638Z,12.80
2022-11-15T04:24:14.385Z,12.80
2022-11-15T04:26:59.935Z,12.70
2022-11-15T04:29:45.227Z,12.80
2022-11-15T04:32:30.379Z,12.80
2022-11-15T04:35:15.862Z,12.80
2022-11-15T04:38:02.561Z,12.80
2022-11-15T04:40:47.683Z,12.80
2022-11-15T04:43:33.360Z,12.80
2022-11-15T04:46:18.752Z,12.80
2022-11-15T04:49:04.286Z,12.80
2022-11-15T04:51:49.544Z,12.80
2022-11-15T04:54:35.220Z,12.80
2022-11-15T04:57:20.636Z,12.80
2022-11-15T05:00:10.831Z,12.80
2022-11-15T05:03:16.035Z,12.90
2022-11-15T05:06:01.962Z,12.90
2022-11-15T05:08:47.507Z,13.00
2022-11-15T05:11:33.082Z,13.00
2022-11-15T05:14:18.350Z,13.00
2022-11-15T05:17:03.626Z,13.00
2022-11-15T05:19:48.880Z,13.00
2022-11-15T05:22:36.614Z,13.00
2022-11-15T05:25:23.014Z,13.00
2022-11-15T05:28:08.230Z,12.90
2022-11-15T05:30:53.676Z,12.90
2022-11-15T05:33:40.490Z,13.00
2022-11-15T05:36:39.541Z,13.00
2022-11-15T05:39:26.829Z,13.00
2022-11-15T05:42:14.528Z,13.00
2022-11-15T05:45:02.403Z,12.90
2022-11-15T05:47:49.660Z,13.00
2022-11-15T05:50:38.732Z,13.00
2022-11-15T05:53:25.943Z,13.00
2022-11-15T05:56:12.644Z,13.00
2022-11-15T05:58:59.938Z,13.10
2022-11-15T06:01:46.828Z,13.00
2022-11-15T06:04:32.216Z,13.00
2022-11-15T06:07:17.402Z,13.00
2022-11-15T06:10:03.284Z,13.00
2022-11-15T06:12:57.328Z,13.00
2022-11-15T06:15:43.755Z,12.90
2022-11-15T06:18:29.269Z,12.90
2022-11-15T06:21:14.886Z,13.00
2022-11-15T06:24:00.356Z,12.90
2022-11-15T06:26:45.636Z,12.90
2022-11-15T06:29:30.678Z,12.90
2022-11-15T06:32:15.849Z,12.90
2022-11-15T06:35:01.038Z,12.90
2022-11-15T06:37:46.305Z,12.90
2022-11-15T06:40:34.500Z,12.90
2022-11-15T06:43:19.682Z,12.90
2022-11-15T06:46:06.193Z,12.90
2022-11-15T06:48:52.718Z,12.90
2022-11-15T06:51:38.217Z,12.90
2022-11-15T06:54:23.501Z,12.90
2022-11-15T06:57:08.975Z,12.90
2022-11-15T06:59:54.231Z,12.80
2022-11-15T07:02:39.588Z,12.90
2022-11-15T07:05:24.600Z,12.80
2022-11-15T07:08:10.547Z,12.80
2022-11-15T07:11:00.470Z,12.80
2022-11-15T07:13:45.939Z,12.70
2022-11-15T07:16:31.312Z,12.80
2022-11-15T07:19:16.861Z,12.80
2022-11-15T07:22:01.930Z,12.80
2022-11-15T07:24:47.399Z,12.80
2022-11-15T07:27:33.021Z,12.80
2022-11-15T07:30:20.721Z,12.80
2022-11-15T07:33:06.152Z,12.80
2022-11-15T07:35:51.496Z,12.90
2022-11-15T07:38:42.434Z,12.90
2022-11-15T07:41:28.437Z,12.90
2022-11-15T07:44:13.561Z,12.90
2022-11-15T07:46:59.040Z,12.80
2022-11-15T07:49:44.593Z,12.80
2022-11-15T07:52:30.026Z,12.80
2022-11-15T07:55:15.667Z,12.90
2022-11-15T07:58:02.618Z,12.90
2022-11-15T08:00:48.321Z,12.90
2022-11-15T08:03:38.079Z,12.90
2022-11-15T08:06:23.448Z,12.90
2022-11-15T08:09:09.097Z,12.80
2022-11-15T08:11:55.403Z,12.70
2022-11-15T08:14:41.698Z,12.60
2022-11-15T08:17:27.585Z,12.50
2022-11-15T08:20:12.980Z,12.40
2022-11-15T08:23:05.030Z,12.30
2022-11-15T08:25:50.254Z,12.10
2022-11-15T08:28:36.020Z,12.00
2022-11-15T08:31:21.317Z,11.90
2022-11-15T08:34:07.008Z,11.90
2022-11-15T08:36:52.723Z,11.80
2022-11-15T08:39:38.924Z,11.80
2022-11-15T08:42:25.424Z,11.80
2022-11-15T08:45:11.014Z,11.80
2022-11-15T08:47:57.012Z,11.80
2022-11-15T08:50:44.639Z,11.80
2022-11-15T08:53:31.291Z,11.80
2022-11-15T08:56:16.444Z,11.80
2022-11-15T08:59:02.526Z,11.90
2022-11-15T09:01:47.802Z,12.10
2022-11-15T09:04:33.308Z,12.20
2022-11-15T09:07:19.171Z,12.30
2022-11-15T09:10:05.115Z,12.40
2022-11-15T09:12:50.659Z,12.60
2022-11-15T09:15:35.882Z,12.80
2022-11-15T09:18:23.217Z,12.80
2022-11-15T09:21:08.960Z,12.80
2022-11-15T09:23:54.217Z,12.70
2022-11-15T09:26:40.018Z,12.60
2022-11-15T09:29:25.282Z,12.70
2022-11-15T09:32:10.693Z,12.70
2022-11-15T09:34:56.306Z,12.70
2022-11-15T09:37:41.722Z,12.70
2022-11-15T09:40:27.430Z,12.70
2022-11-15T09:43:33.210Z,12.80
2022-11-15T09:46:39.891Z,12.90
2022-11-15T09:49:18.169Z,13.40
2022-11-15T09:52:12.196Z,13.90
2022-11-15T09:54:57.416Z,14.40
2022-11-15T09:58:08.947Z,14.70
2022-11-15T10:00:48.592Z,15.10
2022-11-15T10:03:29.724Z,15.40
2022-11-15T10:06:01.427Z,15.60
2022-11-15T10:08:52.708Z,15.60
2022-11-15T10:11:38.201Z,15.60
2022-11-15T10:14:32.229Z,15.60
2022-11-15T10:17:15.809Z,15.50
2022-11-15T10:19:42.545Z,15.60
2022-11-15T10:22:33.747Z,15.70
2022-11-15T10:25:13.641Z,15.80
2022-11-15T10:27:42.397Z,15.90
2022-11-15T10:30:15.686Z,16.00
2022-11-15T10:32:44.886Z,16.10
2022-11-15T10:35:30.696Z,16.20
2022-11-15T10:38:10.039Z,16.50
2022-11-15T10:40:38.745Z,16.60
2022-11-15T10:43:17.645Z,16.80
2022-11-15T10:45:45.123Z,17.00
2022-11-15T10:48:14.631Z,17.00
2022-11-15T10:50:44.523Z,17.10
2022-11-15T10:53:25.431Z,17.40
2022-11-15T10:55:57.171Z,17.70
2022-11-15T10:58:26.654Z,17.90
2022-11-15T11:00:54.458Z,18.10
2022-11-15T11:03:42.440Z,18.20
2022-11-15T11:06:14.417Z,18.20
2022-11-15T11:08:42.028Z,18.20
2022-11-15T11:11:09.542Z,18.10
2022-11-15T11:13:40.868Z,18.20
2022-11-15T11:16:23.178Z,18.40
2022-11-15T11:19:05.248Z,18.40
2022-11-15T11:21:50.577Z,18.30
2022-11-15T11:24:38.638Z,18.50
2022-11-15T11:27:19.802Z,18.50
2022-11-15T11:30:01.858Z,18.60
2022-11-15T11:32:49.317Z,18.50
2022-11-15T11:35:40.809Z,18.50
2022-11-15T11:38:34.680Z,18.20
2022-11-15T11:41:13.794Z,17.70
2022-11-15T11:43:52.786Z,17.70
2022-11-15T11:46:37.632Z,17.60
2022-11-15T11:49:19.832Z,17.60
2022-11-15T11:51:54.292Z,17.50
2022-11-15T11:54:34.687Z,17.40
2022-11-15T11:57:05.829Z,17.30
2022-11-15T11:59:40.263Z,17.40
2022-11-15T12:02:19.082Z,17.20
2022-11-15T12:04:52.702Z,17.20
2022-11-15T12:07:40.449Z,17.20
2022-11-15T12:10:27.064Z,17.00
2022-11-15T12:13:05.139Z,17.00
2022-11-15T12:15:44.906Z,17.00
2022-11-15T12:18:17.196Z,16.90
2022-11-15T12:20:57.432Z,17.10
2022-11-15T12:23:29.866Z,17.50
2022-11-15T12:26:07.875Z,17.90
2022-11-15T12:29:07.025Z,18.00
2022-11-15T12:31:34.893Z,17.60
2022-11-15T12:34:07.632Z,17.40
2022-11-15T12:36:45.103Z,17.10
2022-11-15T12:39:13.726Z,17.00
2022-11-15T12:41:45.967Z,16.90
2022-11-15T12:44:32.442Z,17.00
2022-11-15T12:47:02.992Z,17.20
2022-11-15T12:49:29.700Z,17.50
2022-11-15T12:51:59.521Z,17.80
2022-11-15T12:54:27.437Z,18.00
2022-11-15T12:57:09.143Z,18.00
2022-11-15T12:59:55.719Z,18.10
2022-11-15T13:02:27.475Z,18.00
2022-11-15T13:05:16.279Z,18.10
2022-11-15T13:07:42.992Z,17.90
2022-11-15T13:10:31.035Z,17.90
2022-11-15T13:13:00.575Z,17.90
2022-11-15T13:16:00.517Z,18.00
2022-11-15T13:18:29.826Z,18.00
2022-11-15T13:21:02.129Z,18.20
2022-11-15T13:23:29.718Z,18.30
2022-11-15T13:26:14.188Z,18.00
2022-11-15T13:28:50.386Z,17.60
2022-11-15T13:31:38.112Z,17.40
2022-11-15T13:34:49.315Z,17.10
2022-11-15T13:37:29.556Z,16.80
2022-11-15T13:40:16.730Z,16.50
2022-11-15T13:42:45.891Z,16.30
2022-11-15T13:45:19.291Z,16.00
2022-11-15T13:47:52.327Z,15.90
2022-11-15T13:50:23.484Z,15.80
2022-11-15T13:52:50.857Z,15.60
2022-11-15T13:55:22.365Z,15.60
2022-11-15T13:57:55.567Z,15.60
2022-11-15T14:00:34.156Z,15.80
2022-11-15T14:03:35.862Z,15.90
2022-11-15T14:06:15.911Z,16.20
2022-11-15T14:08:58.976Z,16.40
2022-11-15T14:11:26.021Z,16.30
2022-11-15T14:14:08.115Z,16.50
2022-11-15T14:16:45.053Z,16.60
2022-11-15T14:19:36.465Z,16.40
2022-11-15T14:22:17.266Z,16.20
2022-11-15T14:24:47.660Z,16.00
2022-11-15T14:27:26.696Z,15.80
2022-11-15T14:29:54.348Z,15.60
2022-11-15T14:32:24.001Z,15.50
2022-11-15T14:34:59.340Z,15.30
2022-11-15T14:37:34.563Z,15.20
2022-11-15T14:40:02.857Z,15.10
2022-11-15T14:42:29.763Z,15.00
2022-11-15T14:44:56.539Z,14.90
2022-11-15T14:47:23.304Z,14.80
2022-11-15T14:49:50.085Z,14.80
2022-11-15T14:52:32.992Z,14.70
2022-11-15T14:55:02.130Z,14.70
2022-11-15T14:57:29.830Z,14.60
2022-11-15T14:59:57.701Z,14.60
2022-11-15T15:02:26.564Z,14.50
2022-11-15T15:04:54.324Z,14.50
2022-11-15T15:07:21.383Z,14.50
2022-11-15T15:09:48.304Z,14.50
2022-11-15T15:12:19.823Z,14.40
2022-11-15T15:14:48.143Z,14.40
2022-11-15T15:17:15.773Z,14.40
2022-11-15T15:19:42.669Z,14.30
2022-11-15T15:22:18.028Z,14.30
2022-11-15T15:24:45.887Z,14.30
2022-11-15T15:27:13.248Z,14.30
2022-11-15T15:29:40.471Z,14.20
2022-11-15T15:32:07.583Z,14.20
2022-11-15T15:34:34.902Z,14.20
2022-11-15T15:37:25.669Z,14.20
2022-11-15T15:39:54.631Z,14.20
2022-11-15T15:42:22.540Z,14.10
2022-11-15T15:44:50.645Z,14.10
2022-11-15T15:47:20.921Z,14.10
2022-11-15T15:49:49.874Z,14.10
2022-11-15T15:52:17.643Z,14.10
2022-11-15T15:54:44.499Z,14.00
2022-11-15T15:57:13.647Z,14.00
2022-11-15T15:59:41.036Z,14.00
2022-11-15T16:02:12.395Z,14.00
2022-11-15T16:04:39.381Z,14.00
2022-11-15T16:07:06.358Z,14.00
2022-11-15T16:09:51.691Z,14.00
2022-11-15T16:12:18.516Z,14.00
2022-11-15T16:14:45.229Z,13.90
2022-11-15T16:17:20.503Z,13.90
2022-11-15T16:19:47.529Z,13.90
2022-11-15T16:22:14.254Z,13.90
2022-11-15T16:24:40.972Z,13.90
2022-11-15T16:27:15.141Z,13.90
2022-11-15T16:29:41.916Z,13.90
2022-11-15T16:32:08.708Z,13.90
2022-11-15T16:34:40.481Z,13.90
2022-11-15T16:37:35.062Z,13.90
2022-11-15T16:40:01.794Z,13.90
2022-11-15T16:42:28.475Z,13.90
2022-11-15T16:44:55.162Z,13.90
2022-11-15T16:47:22.760Z,13.90
2022-11-15T16:49:49.537Z,13.90
2022-11-15T16:52:21.172Z,13.90
2022-11-15T16:54:48.340Z,13.80
2022-11-15T16:57:16.501Z,13.80
2022-11-15T16:59:43.258Z,13.90
2022-11-15T17:02:13.261Z,13.90
2022-11-15T17:04:40.120Z,13.90
2022-11-15T17:07:16.741Z,13.90
2022-11-15T17:09:43.532Z,13.90
2022-11-15T17:12:11.658Z,13.90
2022-11-15T17:14:38.541Z,13.90
2022-11-15T17:17:05.289Z,13.90
2022-11-15T17:19:32.526Z,13.90
2022-11-15T17:21:59.289Z,13.90
2022-11-15T17:24:26.137Z,14.00
2022-11-15T17:26:52.882Z,13.90
2022-11-15T17:29:19.666Z,13.90
2022-11-15T17:31:46.464Z,13.90
2022-11-15T17:34:13.281Z,14.00
2022-11-15T17:36:40.054Z,14.00
2022-11-15T17:39:07.155Z,14.00
2022-11-15T17:41:34.067Z,14.00
2022-11-15T17:44:02.952Z,14.00
2022-11-15T17:46:30.202Z,14.10
2022-11-15T17:48:57.671Z,14.00
2022-11-15T17:51:24.847Z,14.00
2022-11-15T17:53:51.937Z,14.10
2022-11-15T17:56:20.911Z,14.10
2022-11-15T17:58:49.397Z,14.10
2022-11-15T18:01:20.790Z,14.20
2022-11-15T18:03:48.403Z,14.20
2022-11-15T18:06:16.102Z,14.20
2022-11-15T18:08:44.859Z,14.20
2022-11-15T18:11:15.571Z,14.20
2022-11-15T18:13:49.497Z,14.20
2022-11-15T18:16:20.959Z,14.20
2022-11-15T18:18:48.148Z,14.20
2022-11-15T18:21:21.502Z,14.30
2022-11-15T18:23:52.519Z,14.30
2022-11-15T18:26:24.384Z,14.30
2022-11-15T18:28:55.836Z,14.30
2022-11-15T18:31:25.600Z,14.40
2022-11-15T18:33:52.699Z,14.40
2022-11-15T18:36:30.279Z,14.30
2022-11-15T18:39:01.779Z,14.30
2022-11-15T18:41:29.644Z,14.30
2022-11-15T18:43:59.224Z,14.40
2022-11-15T18:46:29.433Z,14.40
2022-11-15T18:48:58.339Z,14.40
2022-11-15T18:51:27.055Z,14.30
2022-11-15T18:53:55.904Z,14.30
2022-11-15T18:56:24.512Z,14.30
2022-11-15T18:58:54.087Z,14.20
2022-11-15T19:01:23.466Z,14.10
2022-11-15T19:03:52.589Z,14.10
2022-11-15T19:06:23.385Z,14.00
2022-11-15T19:08:53.157Z,14.00
2022-11-15T19:11:31.131Z,14.00
2022-11-15T19:13:59.977Z,13.90
2022-11-15T19:16:27.804Z,13.90
2022-11-15T19:18:59.364Z,13.90
2022-11-15T19:21:27.713Z,13.80
2022-11-15T19:23:54.849Z,13.80
2022-11-15T19:26:23.300Z,13.80
2022-11-15T19:28:58.043Z,13.70
2022-11-15T19:31:26.592Z,13.70
2022-11-15T19:33:54.683Z,13.60
2022-11-15T19:36:26.847Z,13.60
2022-11-15T19:38:54.952Z,13.50
2022-11-15T19:41:24.634Z,13.50
2022-11-15T19:43:52.418Z,13.50
2022-11-15T19:46:21.473Z,13.40
2022-11-15T19:48:48.611Z,13.40
2022-11-15T19:51:24.406Z,13.30
2022-11-15T19:53:55.603Z,13.30
2022-11-15T19:56:23.261Z,13.30
2022-11-15T19:58:52.453Z,13.20
2022-11-15T20:01:31.605Z,13.20
2022-11-15T20:04:00.354Z,13.20
2022-11-15T20:06:39.967Z,13.20
2022-11-15T20:09:07.364Z,13.10
2022-11-15T20:11:34.617Z,13.10
2022-11-15T20:14:02.479Z,13.10
2022-11-15T20:16:29.634Z,13.10
2022-11-15T20:18:56.826Z,13.10
2022-11-15T20:21:23.916Z,13.10
2022-11-15T20:23:51.677Z,13.00
2022-11-15T20:26:20.056Z,13.10
2022-11-15T20:28:48.149Z,13.00
2022-11-15T20:31:17.892Z,13.00
2022-11-15T20:33:45.999Z,13.00
2022-11-15T20:36:15.639Z,13.00
2022-11-15T20:38:48.053Z,13.00
2022-11-15T20:41:15.377Z,13.00
2022-11-15T20:43:43.806Z,13.00
2022-11-15T20:46:13.853Z,13.00
2022-11-15T20:48:42.016Z,13.00
2022-11-15T20:51:15.214Z,13.00
2022-11-15T20:53:43.706Z,12.90
2022-11-15T20:56:13.494Z,12.90
2022-11-15T20:58:41.668Z,12.90
2022-11-15T21:01:11.768Z,12.90
2022-11-15T21:03:39.611Z,12.90
2022-11-15T21:06:08.191Z,12.90
2022-11-15T21:08:54.101Z,12.80
2022-11-15T21:11:40.908Z,12.80
2022-11-15T21:14:25.362Z,12.80
2022-11-15T21:16:52.906Z,12.80
2022-11-15T21:19:26.638Z,12.80
2022-11-15T21:22:04.696Z,12.80
2022-11-15T21:24:36.822Z,12.80
2022-11-15T21:27:07.847Z,12.70
2022-11-15T21:29:48.157Z,12.70
2022-11-15T21:32:19.863Z,12.70
2022-11-15T21:34:57.666Z,12.70
2022-11-15T21:37:29.181Z,12.70
2022-11-15T21:39:57.201Z,12.70
2022-11-15T21:42:32.254Z,12.60
2022-11-15T21:45:08.305Z,12.70
2022-11-15T21:47:57.852Z,12.60
2022-11-15T21:50:41.763Z,12.60
2022-11-15T21:53:32.432Z,12.60
2022-11-15T21:56:09.959Z,12.60
2022-11-15T21:58:46.235Z,12.50
2022-11-15T22:01:36.157Z,12.60
2022-11-15T22:04:06.754Z,12.60
2022-11-15T22:06:58.287Z,12.50
2022-11-15T22:09:46.033Z,12.50
2022-11-15T22:12:31.412Z,12.60
2022-11-15T22:15:04.080Z,12.60
2022-11-15T22:17:52.859Z,12.50
2022-11-15T22:20:45.136Z,12.50
2022-11-15T22:23:14.461Z,12.50
2022-11-15T22:25:45.131Z,12.50
2022-11-15T22:28:20.099Z,12.50
2022-11-15T22:30:54.560Z,12.50
2022-11-15T22:33:48.867Z,12.50
2022-11-15T22:36:20.206Z,12.50
2022-11-15T22:38:50.823Z,12.50
2022-11-15T22:41:21.847Z,12.50
2022-11-15T22:43:57.947Z,12.50
2022-11-15T22:46:28.605Z,12.50
2022-11-15T22:49:12.100Z,12.40
2022-11-15T22:51:49.369Z,12.50
2022-11-15T22:54:20.559Z,12.40
2022-11-15T22:57:02.600Z,12.40
2022-11-15T22:59:39.346Z,12.40
2022-11-15T23:02:12.543Z,12.40
2022-11-15T23:04:56.757Z,12.40
2022-11-15T23:11:14.616Z,12.40
2022-11-15T23:17:34.566Z,12.30
2022-11-15T23:23:57.583Z,12.30
2022-11-15T23:26:51.467Z,12.30
2022-11-15T23:29:26.746Z,12.30
2022-11-15T23:32:16.186Z,12.30
2022-11-15T23:34:46.988Z,12.30
2022-11-15T23:37:15.654Z,12.30
2022-11-15T23:39:42.737Z,12.30
2022-11-15T23:42:20.401Z,12.30
2022-11-15T23:44:57.813Z,12.30
2022-11-15T23:50:17.937Z,12.30
2022-11-15T23:52:46.880Z,12.30
2022-11-15T23:55:16.751Z,12.30
2022-11-15T23:57:53.245Z,12.30
